Portada
METAR-TAF:

METAR-TAF

Aeropuertos :

Aeropuerto Internacional de Pago Pago

Pago Pago, Islas Ultramarinas Menores de Estados Unidos

latitud: 14-20S, longitud: 170-43W, altitud: 3 m

Observación

El informe se hizo hace 13 minutos, a las 10:50 UTC
Viento 25 kt del sur-sureste
Temperatura 26°C
Humedad 84%
Presión 1012 hPa
Visibilidad: 12.9 km
Nubes dispersas a una altura de 1600 ft
Cielo nuboso a una altura de 4000 ft
Cielo cubierto a una altura de 10000 ft

METAR: NSTU 201050Z 15025KT 8SM SCT016 BKN040 OVC100 26/23 A2988 RMK SLP119 T02630232 402770249

Hora: 00:03 (11:03 UTC)

Pronóstico

El informe se hizo hace 1 hora y 6 minutos, a las 09:57 UTC
Pronóstico válido del 20 a las 10 UTC al 21 a las 06 UTC
Viento 18 kt del sureste
Visibilidad: 10 km
Nubes dispersas a una altura de 1500 ft
Cielo nuboso a una altura de 4000 ft
Cielo cubierto a una altura de 10000 ft
chaparrones en las proximidades

TAF: NSTU 200957Z 2010/2106 13018KT P6SM VCSH SCT015 BKN040 OVC100

Observaciones y pronósticos meteorológicos de más de 4000 aeropuertos (mensajes METAR y TAF).

Los puntos amarillos y rojos representan las estaciones disponibles.

Ponga el ratón en el punto deseado para ver el nombre de la estación.

Haga clic para ver las observaciones y los pronósticos meteorológicos.

Para cambiar el mapa : haga clic en los botones verdes con una cruz de color negro para hacer un zoom, en el botón verde con un guión para alejar o en las flechas verdes para mapas adyacentes.


METAR-TAF: